Terminal Aerodrome Forecast
Issued by NWS

Home | Current Version | Previous Version | Text Only | Print | Product List | Glossary On
Versions: 1 2 3 4 5 6 7 8 9 10 11 12 13
000
FTUS46 KPDT 052320
TAFDLS
TAF
KDLS 052320Z 0600/0624 33010KT P6SM VCSH SCT060 BKN100
     FM060400 31010KT P6SM BKN100
     FM061400 32005KT P6SM SCT100
     FM061700 32010KT P6SM SKC
     FM062000 32018G24KT P6SM SKC=

USA.gov is the U.S. government's official web portal to all federal, state and local government web resources and services.